createdAt,value
2019-05-18T00:00:48.127Z,10.2
2019-05-18T00:01:48.887Z,10.2
2019-05-18T00:02:50.774Z,10.2
2019-05-18T00:03:52.621Z,10.2
2019-05-18T00:04:54.486Z,10.2
2019-05-18T00:05:56.380Z,10.2
2019-05-18T00:06:57.969Z,10.1
2019-05-18T00:07:59.836Z,10.2
2019-05-18T00:09:01.705Z,10.2
2019-05-18T00:10:03.291Z,10.2
2019-05-18T00:11:04.875Z,10.2
2019-05-18T00:12:06.758Z,10.1
2019-05-18T00:13:08.399Z,10.1
2019-05-18T00:14:10.267Z,10.1
2019-05-18T00:15:12.133Z,10.1
2019-05-18T00:16:14.004Z,10.1
2019-05-18T00:17:24.780Z,10.2
2019-05-18T00:18:27.122Z,10.1
2019-05-18T00:19:28.992Z,10.1
2019-05-18T00:20:30.858Z,10.1
2019-05-18T00:21:32.729Z,10.1
2019-05-18T00:22:34.601Z,10.1
2019-05-18T00:23:36.471Z,10.2
2019-05-18T00:24:37.797Z,10.2
2019-05-18T00:25:39.663Z,10.2
2019-05-18T00:26:41.530Z,10.2
2019-05-18T00:27:43.395Z,10.1
2019-05-18T00:28:45.408Z,10.2
2019-05-18T00:29:47.273Z,10.1
2019-05-18T00:30:49.139Z,10.2
2019-05-18T00:31:51.035Z,10.1
2019-05-18T00:32:52.627Z,10.1
2019-05-18T00:33:54.491Z,10
2019-05-18T00:34:56.357Z,10.2
2019-05-18T00:35:58.226Z,10.2
2019-05-18T00:37:00.090Z,10.2
2019-05-18T00:38:01.680Z,10.2
2019-05-18T00:39:03.546Z,10
2019-05-18T00:40:05.409Z,10
2019-05-18T00:41:07.272Z,10.1
2019-05-18T00:42:08.882Z,10
2019-05-18T00:43:10.732Z,10
2019-05-18T00:44:12.075Z,10.1
2019-05-18T00:45:13.926Z,10.1
2019-05-18T00:46:15.824Z,10.1
2019-05-18T00:47:16.578Z,10
2019-05-18T00:48:18.448Z,10
2019-05-18T00:49:20.314Z,10
2019-05-18T00:50:22.182Z,10.1
2019-05-18T00:51:24.046Z,10
2019-05-18T00:52:25.909Z,9.9
2019-05-18T00:53:27.773Z,10
2019-05-18T00:54:29.362Z,9.9
2019-05-18T00:55:30.952Z,10.1
2019-05-18T00:56:32.549Z,10
2019-05-18T00:57:34.414Z,10
2019-05-18T00:58:36.278Z,10
2019-05-18T00:59:38.147Z,10
2019-05-18T01:00:40.013Z,10
2019-05-18T01:01:41.599Z,10
2019-05-18T01:02:43.470Z,9.9
2019-05-18T01:03:45.332Z,10.2
2019-05-18T01:04:47.197Z,10.2
2019-05-18T01:05:49.066Z,10.1
2019-05-18T01:06:50.928Z,10.1
2019-05-18T01:07:52.808Z,10
2019-05-18T01:08:54.735Z,10
2019-05-18T01:09:56.609Z,10
2019-05-18T01:10:58.479Z,10
2019-05-18T01:12:00.073Z,10.1
2019-05-18T01:13:01.936Z,9.9
2019-05-18T01:14:03.809Z,9.9
2019-05-18T01:15:05.672Z,10
2019-05-18T01:16:07.261Z,10.1
2019-05-18T01:17:09.128Z,9.9
2019-05-18T01:18:10.995Z,10
2019-05-18T01:19:12.866Z,9.9
2019-05-18T01:20:14.192Z,9.8
2019-05-18T01:21:15.772Z,9.9
2019-05-18T01:22:17.658Z,9.8
2019-05-18T01:23:19.525Z,9.8
2019-05-18T01:24:21.390Z,9.9
2019-05-18T01:25:23.258Z,9.7
2019-05-18T01:26:25.119Z,9.7
2019-05-18T01:27:26.979Z,9.8
2019-05-18T01:28:28.575Z,9.7
2019-05-18T01:29:30.440Z,9.7
2019-05-18T01:30:32.032Z,9.7
2019-05-18T01:31:33.065Z,9.7
2019-05-18T01:32:34.929Z,9.6
2019-05-18T01:33:36.236Z,9.6
2019-05-18T01:34:37.821Z,9.8
2019-05-18T01:35:39.511Z,9.8
2019-05-18T01:36:41.373Z,9.7
2019-05-18T01:37:43.236Z,9.8
2019-05-18T01:38:45.106Z,9.8
2019-05-18T01:39:46.964Z,9.7
2019-05-18T01:40:48.840Z,9.7
2019-05-18T01:41:50.715Z,9.7
2019-05-18T01:42:52.581Z,9.8
2019-05-18T01:43:54.453Z,9.7
2019-05-18T01:44:56.312Z,9.7
2019-05-18T01:45:58.177Z,9.7
2019-05-18T01:47:00.045Z,9.7
2019-05-18T01:48:13.037Z,9.7
2019-05-18T01:49:16.167Z,9.7
2019-05-18T01:50:18.034Z,9.7
2019-05-18T01:51:19.929Z,9.7
2019-05-18T01:52:21.778Z,9.7
2019-05-18T01:53:23.641Z,9.7
2019-05-18T01:54:25.514Z,9.7
2019-05-18T01:55:27.376Z,9.7
2019-05-18T01:56:29.240Z,9.8
2019-05-18T01:57:31.104Z,9.8
2019-05-18T01:58:32.970Z,9.7
2019-05-18T01:59:34.834Z,9.7
2019-05-18T02:00:36.696Z,9.7
2019-05-18T02:01:38.563Z,9.7
2019-05-18T02:02:40.458Z,9.8
2019-05-18T02:03:42.406Z,9.8
2019-05-18T02:04:44.384Z,9.9
2019-05-18T02:05:46.251Z,9.9
2019-05-18T02:06:47.837Z,9.7
2019-05-18T02:07:49.709Z,9.8
2019-05-18T02:08:51.771Z,9.8
2019-05-18T02:09:53.636Z,9.9
2019-05-18T02:10:55.514Z,9.9
2019-05-18T02:11:57.364Z,9.8
2019-05-18T02:12:59.228Z,9.8
2019-05-18T02:14:01.101Z,9.8
2019-05-18T02:15:02.769Z,9.8
2019-05-18T02:16:04.623Z,9.7
2019-05-18T02:17:06.492Z,9.6
2019-05-18T02:18:08.348Z,9.8
2019-05-18T02:19:10.222Z,9.6
2019-05-18T02:20:11.809Z,9.6
2019-05-18T02:21:13.672Z,9.7
2019-05-18T02:22:15.535Z,9.7
2019-05-18T02:23:17.398Z,9.7
2019-05-18T02:24:19.272Z,9.7
2019-05-18T02:25:21.139Z,9.8
2019-05-18T02:26:23.009Z,9.7
2019-05-18T02:27:24.880Z,9.6
2019-05-18T02:28:26.478Z,9.6
2019-05-18T02:29:28.327Z,9.8
2019-05-18T02:30:30.190Z,9.7
2019-05-18T02:31:31.785Z,9.8
2019-05-18T02:32:33.645Z,9.8
2019-05-18T02:33:35.566Z,9.8
2019-05-18T02:34:37.165Z,9.7
2019-05-18T02:35:39.034Z,9.8
2019-05-18T02:36:40.896Z,9.6
2019-05-18T02:37:43.013Z,9.7
2019-05-18T02:38:44.876Z,9.8
2019-05-18T02:39:46.752Z,9.7
2019-05-18T02:40:48.620Z,9.6
2019-05-18T02:41:50.483Z,9.6
2019-05-18T02:42:52.353Z,9.6
2019-05-18T02:43:54.220Z,9.8
2019-05-18T02:44:55.803Z,9.8
2019-05-18T02:45:57.701Z,9.8
2019-05-18T02:46:59.549Z,9.8
2019-05-18T02:48:01.421Z,9.8
2019-05-18T02:49:02.757Z,9.8
2019-05-18T02:50:04.082Z,9.8
2019-05-18T02:51:05.943Z,9.8
2019-05-18T02:52:12.953Z,9.6
2019-05-18T02:53:14.818Z,9.7
2019-05-18T02:54:16.681Z,9.6
2019-05-18T02:55:18.546Z,9.7
2019-05-18T02:56:20.422Z,9.7
2019-05-18T02:57:21.719Z,9.6
2019-05-18T02:58:23.595Z,9.5
2019-05-18T02:59:25.176Z,9.6
2019-05-18T03:00:27.038Z,9.5
2019-05-18T03:01:28.905Z,9.5
2019-05-18T03:02:30.485Z,9.5
2019-05-18T03:03:32.372Z,9.4
2019-05-18T03:04:34.223Z,9.5
2019-05-18T03:05:36.089Z,9.5
2019-05-18T03:06:37.958Z,9.4
2019-05-18T03:07:39.822Z,9.6
2019-05-18T03:08:41.689Z,9.4
2019-05-18T03:09:43.562Z,9.4
2019-05-18T03:10:45.159Z,9.6
2019-05-18T03:11:47.062Z,9.6
2019-05-18T03:12:48.923Z,9.5
2019-05-18T03:13:50.798Z,9.6
2019-05-18T03:14:52.657Z,9.6
2019-05-18T03:15:54.516Z,9.6
2019-05-18T03:16:56.377Z,9.6
2019-05-18T03:17:58.260Z,9.6
2019-05-18T03:19:07.905Z,9.5
2019-05-18T03:20:10.899Z,9.6
2019-05-18T03:21:12.772Z,9.5
2019-05-18T03:22:14.350Z,9.5
2019-05-18T03:23:16.214Z,9.5
2019-05-18T03:24:18.079Z,9.5
2019-05-18T03:25:19.963Z,9.5
2019-05-18T03:26:21.288Z,9.5
2019-05-18T03:27:23.153Z,9.5
2019-05-18T03:28:24.741Z,9.5
2019-05-18T03:29:26.603Z,9.5
2019-05-18T03:30:28.190Z,9.6
2019-05-18T03:31:30.058Z,9.5
2019-05-18T03:32:31.936Z,9.5
2019-05-18T03:33:33.981Z,9.5
2019-05-18T03:34:35.865Z,9.6
2019-05-18T03:35:37.730Z,9.6
2019-05-18T03:36:39.653Z,9.6
2019-05-18T03:37:41.523Z,9.6
2019-05-18T03:38:43.385Z,9.4
2019-05-18T03:39:45.251Z,9.6
2019-05-18T03:40:47.117Z,9.4
2019-05-18T03:41:48.985Z,9.4
2019-05-18T03:42:50.855Z,9.4
2019-05-18T03:43:52.721Z,9.4
2019-05-18T03:44:54.592Z,9.3
2019-05-18T03:45:56.458Z,9.3
2019-05-18T03:46:58.324Z,9.3
2019-05-18T03:47:59.927Z,9.3
2019-05-18T03:49:01.795Z,9.4
2019-05-18T03:50:03.658Z,9.4
2019-05-18T03:51:05.558Z,9.5
2019-05-18T03:52:07.143Z,9.4
2019-05-18T03:53:08.717Z,9.6
2019-05-18T03:54:10.581Z,9.6
2019-05-18T03:55:12.446Z,9.6
2019-05-18T03:56:14.036Z,9.6
2019-05-18T03:57:15.903Z,9.5
2019-05-18T03:58:17.474Z,9.6
2019-05-18T03:59:19.347Z,9.5
2019-05-18T04:00:21.220Z,9.6
2019-05-18T04:01:22.807Z,9.6
2019-05-18T04:02:24.673Z,9.8
2019-05-18T04:03:26.271Z,9.7
2019-05-18T04:04:27.856Z,9.7
2019-05-18T04:05:29.431Z,9.7
2019-05-18T04:06:31.017Z,9.8
2019-05-18T04:07:32.599Z,9.7
2019-05-18T04:08:34.455Z,9.7
2019-05-18T04:09:36.319Z,9.7
2019-05-18T04:10:38.185Z,9.7
2019-05-18T04:11:40.048Z,9.8
2019-05-18T04:12:41.637Z,9.8
2019-05-18T04:13:43.502Z,9.8
2019-05-18T04:14:45.369Z,9.7
2019-05-18T04:15:47.234Z,9.8
2019-05-18T04:16:48.815Z,9.7
2019-05-18T04:17:50.693Z,9.9
2019-05-18T04:18:52.542Z,9.7
2019-05-18T04:19:54.423Z,9.7
2019-05-18T04:20:56.280Z,9.7
2019-05-18T04:21:58.140Z,9.8
2019-05-18T04:23:00.016Z,9.7
2019-05-18T04:24:01.907Z,9.9
2019-05-18T04:25:03.777Z,9.9
2019-05-18T04:26:05.653Z,9.9
2019-05-18T04:27:07.512Z,9.9
2019-05-18T04:28:09.414Z,9.7
2019-05-18T04:29:10.438Z,9.7
2019-05-18T04:30:12.302Z,9.7
2019-05-18T04:31:14.176Z,9.8
2019-05-18T04:32:16.052Z,9.9
2019-05-18T04:33:17.905Z,9.9
2019-05-18T04:34:19.797Z,9.8
2019-05-18T04:35:21.664Z,10
2019-05-18T04:36:23.538Z,10
2019-05-18T04:37:24.855Z,10.1
2019-05-18T04:38:26.723Z,10.1
2019-05-18T04:39:28.593Z,10.1
2019-05-18T04:40:29.345Z,10.2
2019-05-18T04:41:31.224Z,10.2
2019-05-18T04:42:33.095Z,10.2
2019-05-18T04:43:34.961Z,10.3
2019-05-18T04:44:36.831Z,10.4
2019-05-18T04:45:38.705Z,10.4
2019-05-18T04:46:40.718Z,10.4
2019-05-18T04:47:42.586Z,10.2
2019-05-18T04:48:49.549Z,10.2
2019-05-18T04:50:04.240Z,10.2
2019-05-18T04:51:07.526Z,10.2
2019-05-18T04:52:09.399Z,10.2
2019-05-18T04:53:11.276Z,10.2
2019-05-18T04:54:12.874Z,10.1
2019-05-18T04:55:14.743Z,10.1
2019-05-18T04:56:16.621Z,10
2019-05-18T04:57:18.488Z,10.1
2019-05-18T04:58:20.365Z,10.1
2019-05-18T04:59:21.961Z,10.2
2019-05-18T05:00:23.835Z,10.1
2019-05-18T05:01:25.707Z,10.1
2019-05-18T05:02:27.587Z,10.3
2019-05-18T05:03:29.168Z,10.3
2019-05-18T05:04:30.760Z,10.4
2019-05-18T05:05:32.633Z,10.4
2019-05-18T05:06:34.506Z,10.5
2019-05-18T05:07:36.379Z,10.6
2019-05-18T05:08:38.245Z,10.7
2019-05-18T05:09:40.112Z,10.8
2019-05-18T05:10:41.985Z,10.9
2019-05-18T05:11:43.854Z,11
2019-05-18T05:12:45.766Z,11
2019-05-18T05:13:47.645Z,11
2019-05-18T05:14:49.512Z,11
2019-05-18T05:15:51.375Z,11.1
2019-05-18T05:16:52.972Z,11.1
2019-05-18T05:17:54.843Z,11
2019-05-18T05:18:56.712Z,11.1
2019-05-18T05:19:58.298Z,11
2019-05-18T05:21:00.195Z,11.2
2019-05-18T05:22:01.783Z,11.2
2019-05-18T05:23:03.663Z,11
2019-05-18T05:24:05.795Z,11.2
2019-05-18T05:25:07.669Z,11.1
2019-05-18T05:26:09.543Z,11.2
2019-05-18T05:27:11.415Z,11.4
2019-05-18T05:28:13.006Z,11.2
2019-05-18T05:29:14.876Z,11.3
2019-05-18T05:30:16.738Z,11.3
2019-05-18T05:31:18.611Z,11.3
2019-05-18T05:32:20.481Z,11.5
2019-05-18T05:33:22.353Z,11.5
2019-05-18T05:34:23.985Z,11.5
2019-05-18T05:35:25.858Z,11.5
2019-05-18T05:36:27.727Z,11.6
2019-05-18T05:37:29.331Z,11.6
2019-05-18T05:38:31.201Z,11.5
2019-05-18T05:39:33.071Z,11.7
2019-05-18T05:40:34.942Z,11.7
2019-05-18T05:41:36.522Z,11.7
2019-05-18T05:42:38.103Z,11.8
2019-05-18T05:43:39.974Z,11.8
2019-05-18T05:44:41.852Z,11.8
2019-05-18T05:45:43.154Z,11.8
2019-05-18T05:46:45.042Z,11.8
2019-05-18T05:47:46.914Z,11.8
2019-05-18T05:48:48.508Z,11.8
2019-05-18T05:49:50.388Z,11.9
2019-05-18T05:50:52.262Z,12
2019-05-18T05:51:53.859Z,12.1
2019-05-18T05:52:55.729Z,12.2
2019-05-18T05:53:57.601Z,12.3
2019-05-18T05:54:59.469Z,12.3
2019-05-18T05:56:01.052Z,12.2
2019-05-18T05:57:03.043Z,12.5
2019-05-18T05:58:04.079Z,12.5
2019-05-18T05:59:06.383Z,12.5
2019-05-18T06:00:07.958Z,12.5
2019-05-18T06:01:09.854Z,12.6
2019-05-18T06:02:11.730Z,12.6
2019-05-18T06:03:13.602Z,12.6
2019-05-18T06:04:15.474Z,12.7
2019-05-18T06:05:17.343Z,12.7
2019-05-18T06:06:19.211Z,12.8
2019-05-18T06:07:24.487Z,12.9
2019-05-18T06:08:26.374Z,13
2019-05-18T06:09:28.263Z,13.1
2019-05-18T06:10:29.833Z,13.1
2019-05-18T06:11:31.700Z,13.1
2019-05-18T06:12:33.570Z,13.2
2019-05-18T06:13:35.451Z,13.4
2019-05-18T06:14:37.311Z,13.3
2019-05-18T06:15:39.179Z,13.3
2019-05-18T06:16:41.057Z,13.4
2019-05-18T06:17:42.925Z,13.3
2019-05-18T06:18:44.540Z,13.5
2019-05-18T06:19:46.651Z,13.6
2019-05-18T06:20:51.268Z,13.6
2019-05-18T06:21:53.416Z,13.6
2019-05-18T06:22:55.290Z,13.8
2019-05-18T06:23:56.882Z,13.7
2019-05-18T06:24:58.748Z,13.8
2019-05-18T06:26:00.622Z,13.7
2019-05-18T06:27:02.242Z,13.8
2019-05-18T06:28:04.172Z,13.9
2019-05-18T06:29:05.759Z,13.8
2019-05-18T06:30:07.368Z,13.7
2019-05-18T06:31:09.067Z,13.7
2019-05-18T06:32:10.945Z,13.9
2019-05-18T06:33:12.552Z,13.9
2019-05-18T06:34:14.425Z,14
2019-05-18T06:35:16.299Z,14
2019-05-18T06:36:18.196Z,14
2019-05-18T06:37:20.060Z,14.1
2019-05-18T06:38:21.935Z,14.1
2019-05-18T06:39:23.807Z,14.2
2019-05-18T06:40:25.681Z,14.2
2019-05-18T06:41:27.564Z,14.2
2019-05-18T06:42:29.157Z,14.2
2019-05-18T06:43:31.061Z,14.4
2019-05-18T06:44:32.657Z,14.4
2019-05-18T06:45:34.534Z,14.4
2019-05-18T06:46:36.407Z,14.4
2019-05-18T06:47:38.280Z,14.5
2019-05-18T06:48:40.156Z,14.4
2019-05-18T06:49:42.035Z,14.6
2019-05-18T06:50:43.921Z,14.5
2019-05-18T06:51:45.496Z,14.6
2019-05-18T06:52:47.377Z,14.5
2019-05-18T06:53:49.313Z,14.4
2019-05-18T06:54:51.187Z,14.5
2019-05-18T06:55:53.060Z,14.6
2019-05-18T06:56:54.929Z,14.7
2019-05-18T06:57:56.806Z,14.8
2019-05-18T06:58:58.678Z,14.7
2019-05-18T07:00:00.542Z,14.6
2019-05-18T07:01:02.419Z,14.8
2019-05-18T07:02:04.290Z,14.7
2019-05-18T07:03:06.165Z,14.7
2019-05-18T07:04:07.773Z,14.6
2019-05-18T07:05:09.644Z,14.7
2019-05-18T07:06:11.228Z,14.7
2019-05-18T07:07:12.827Z,14.8
2019-05-18T07:08:14.720Z,14.9
2019-05-18T07:09:16.303Z,14.9
2019-05-18T07:10:18.178Z,14.9
2019-05-18T07:11:20.206Z,14.9
2019-05-18T07:12:22.124Z,14.8
2019-05-18T07:13:24.020Z,14.9
2019-05-18T07:14:26.243Z,14.8
2019-05-18T07:15:28.190Z,14.9
2019-05-18T07:16:29.794Z,14.9
2019-05-18T07:17:34.418Z,14.9
2019-05-18T07:18:36.163Z,15
2019-05-18T07:19:37.753Z,15
2019-05-18T07:20:39.628Z,15.3
2019-05-18T07:21:41.503Z,15.5
2019-05-18T07:22:43.377Z,15.6
2019-05-18T07:23:45.186Z,15.7
2019-05-18T07:24:47.061Z,15.7
2019-05-18T07:25:48.979Z,15.7
2019-05-18T07:26:50.855Z,15.8
2019-05-18T07:27:52.731Z,15.8
2019-05-18T07:28:54.602Z,15.9
2019-05-18T07:29:56.486Z,16
2019-05-18T07:30:58.366Z,16
2019-05-18T07:32:00.491Z,16
2019-05-18T07:33:02.361Z,16
2019-05-18T07:34:04.240Z,15.9
2019-05-18T07:35:06.114Z,15.9
2019-05-18T07:36:07.991Z,15.9
2019-05-18T07:37:09.865Z,16
2019-05-18T07:38:11.737Z,16
2019-05-18T07:39:13.613Z,16
2019-05-18T07:40:15.487Z,16
2019-05-18T07:41:17.358Z,16.1
2019-05-18T07:42:19.226Z,16
2019-05-18T07:43:21.094Z,16
2019-05-18T07:44:22.689Z,16
2019-05-18T07:45:24.561Z,16.1
2019-05-18T07:46:26.435Z,16
2019-05-18T07:47:28.304Z,16
2019-05-18T07:48:30.183Z,15.9
2019-05-18T07:49:31.215Z,16
2019-05-18T07:50:32.814Z,15.8
2019-05-18T07:51:36.806Z,15.9
2019-05-18T07:52:39.234Z,15.8
2019-05-18T07:53:41.115Z,15.8
2019-05-18T07:54:42.992Z,15.7
2019-05-18T07:55:44.869Z,15.8
2019-05-18T07:56:46.743Z,15.8
2019-05-18T07:57:48.633Z,15.7
2019-05-18T07:58:50.202Z,15.7
2019-05-18T07:59:52.081Z,15.7
2019-05-18T08:00:53.118Z,15.7
2019-05-18T08:01:54.992Z,15.9
2019-05-18T08:02:56.585Z,16.1
2019-05-18T08:03:58.456Z,15.9
2019-05-18T08:05:00.328Z,16.1
2019-05-18T08:06:02.206Z,16.1
2019-05-18T08:07:04.233Z,16.1
2019-05-18T08:08:06.108Z,16.2
2019-05-18T08:09:07.436Z,16
2019-05-18T08:10:09.032Z,16.2
2019-05-18T08:11:10.898Z,16.3
2019-05-18T08:12:12.492Z,16.2
2019-05-18T08:13:14.365Z,16.2
2019-05-18T08:14:15.985Z,16.5
2019-05-18T08:15:17.600Z,16.5
2019-05-18T08:16:19.468Z,16.4
2019-05-18T08:17:21.060Z,16.7
2019-05-18T08:18:22.656Z,16.5
2019-05-18T08:19:24.533Z,16.5
2019-05-18T08:20:26.420Z,16.5
2019-05-18T08:21:28.288Z,16.6
2019-05-18T08:22:30.165Z,16.6
2019-05-18T08:23:32.035Z,16.8
2019-05-18T08:24:33.927Z,16.7
2019-05-18T08:25:35.799Z,16.7
2019-05-18T08:26:37.676Z,16.7
2019-05-18T08:27:39.541Z,16.7
2019-05-18T08:28:41.415Z,16.7
2019-05-18T08:29:43.288Z,16.7
2019-05-18T08:30:45.156Z,16.8
2019-05-18T08:31:47.030Z,16.9
2019-05-18T08:32:48.896Z,16.9
2019-05-18T08:33:50.840Z,17.1
2019-05-18T08:34:52.694Z,17.1
2019-05-18T08:35:54.289Z,17.2
2019-05-18T08:36:56.161Z,17.2
2019-05-18T08:37:58.061Z,17.2
2019-05-18T08:38:59.982Z,17.3
2019-05-18T08:40:01.886Z,17.2
2019-05-18T08:41:03.774Z,17.2
2019-05-18T08:42:05.654Z,17.3
2019-05-18T08:43:07.531Z,17.4
2019-05-18T08:44:09.395Z,17.3
2019-05-18T08:45:11.006Z,17.5
2019-05-18T08:46:12.601Z,17.5
2019-05-18T08:47:14.472Z,17.5
2019-05-18T08:48:16.347Z,17.5
2019-05-18T08:49:18.237Z,17.5
2019-05-18T08:50:20.104Z,17.6
2019-05-18T08:51:21.707Z,17.6
2019-05-18T08:52:23.582Z,17.6
2019-05-18T08:53:25.476Z,17.7
2019-05-18T08:54:27.331Z,17.7
2019-05-18T08:55:29.205Z,17.7
2019-05-18T08:56:31.098Z,17.7
2019-05-18T08:57:32.974Z,17.6
2019-05-18T08:58:34.849Z,17.6
2019-05-18T08:59:39.727Z,17.9
2019-05-18T09:00:41.837Z,17.9
2019-05-18T09:01:43.430Z,17.9
2019-05-18T09:02:45.307Z,17.9
2019-05-18T09:03:46.896Z,17.8
2019-05-18T09:04:48.764Z,17.9
2019-05-18T09:05:50.640Z,17.9
2019-05-18T09:06:52.522Z,17.8
2019-05-18T09:07:53.560Z,18.1
2019-05-18T09:08:55.431Z,18.2
2019-05-18T09:09:57.301Z,18.3
2019-05-18T09:10:58.898Z,18.3
2019-05-18T09:12:00.772Z,18.2
2019-05-18T09:13:02.742Z,18.3
2019-05-18T09:14:04.626Z,18.3
2019-05-18T09:15:06.518Z,18.3
2019-05-18T09:16:08.376Z,18.3
2019-05-18T09:17:09.977Z,18.3
2019-05-18T09:18:11.835Z,18.4
2019-05-18T09:19:13.431Z,18.3
2019-05-18T09:20:15.310Z,18.4
2019-05-18T09:21:16.947Z,18.3
2019-05-18T09:22:22.991Z,18.3
2019-05-18T09:23:25.250Z,18.5
2019-05-18T09:24:26.840Z,18.6
2019-05-18T09:25:28.435Z,18.5
2019-05-18T09:26:30.341Z,18.5
2019-05-18T09:27:32.209Z,18.5
2019-05-18T09:28:34.293Z,18.6
2019-05-18T09:29:35.872Z,18.6
2019-05-18T09:30:37.741Z,18.6
2019-05-18T09:31:42.638Z,18.5
2019-05-18T09:32:44.507Z,18.4
2019-05-18T09:33:46.378Z,18.4
2019-05-18T09:34:48.250Z,18.6
2019-05-18T09:35:50.114Z,18.6
2019-05-18T09:36:51.988Z,18.5
2019-05-18T09:37:53.863Z,18.5
2019-05-18T09:38:55.736Z,18.6
2019-05-18T09:39:57.620Z,18.5
2019-05-18T09:40:58.668Z,18.5
2019-05-18T09:42:00.536Z,18.6
2019-05-18T09:43:02.142Z,18.6
2019-05-18T09:44:03.753Z,18.6
2019-05-18T09:45:05.345Z,18.7
2019-05-18T09:46:07.201Z,18.6
2019-05-18T09:47:09.071Z,18.6
2019-05-18T09:48:10.943Z,18.7
2019-05-18T09:49:12.814Z,18.7
2019-05-18T09:50:14.690Z,18.8
2019-05-18T09:51:16.601Z,18.9
2019-05-18T09:52:18.459Z,18.9
2019-05-18T09:53:20.323Z,19
2019-05-18T09:54:22.195Z,18.8
2019-05-18T09:55:24.064Z,19
2019-05-18T09:56:25.704Z,18.9
2019-05-18T09:57:27.591Z,18.9
2019-05-18T09:58:29.449Z,18.9
2019-05-18T09:59:31.336Z,19
2019-05-18T10:00:38.357Z,19
2019-05-18T10:01:40.729Z,19.1
2019-05-18T10:02:42.872Z,19.2
2019-05-18T10:03:44.472Z,19.1
2019-05-18T10:04:46.333Z,19
2019-05-18T10:05:48.223Z,19.1
2019-05-18T10:06:49.519Z,19.2
2019-05-18T10:07:51.384Z,19.1
2019-05-18T10:08:53.273Z,19.2
2019-05-18T10:09:55.150Z,19.2
2019-05-18T10:10:57.012Z,19.3
2019-05-18T10:11:58.895Z,19.3
2019-05-18T10:13:00.752Z,19.4
2019-05-18T10:14:02.623Z,19.4
2019-05-18T10:15:04.514Z,19.4
2019-05-18T10:16:06.381Z,19.5
2019-05-18T10:17:07.977Z,19.5
2019-05-18T10:18:08.798Z,19.6
2019-05-18T10:19:10.682Z,19.6
2019-05-18T10:20:12.553Z,19.5
2019-05-18T10:21:14.425Z,19.5
2019-05-18T10:22:16.297Z,19.5
2019-05-18T10:23:18.181Z,19.4
2019-05-18T10:24:20.048Z,19.3
2019-05-18T10:25:21.916Z,19.4
2019-05-18T10:26:23.787Z,19.5
2019-05-18T10:27:25.659Z,19.4
2019-05-18T10:28:27.528Z,19.5
2019-05-18T10:29:29.399Z,19.6
2019-05-18T10:30:31.276Z,19.7
2019-05-18T10:31:32.871Z,19.8
2019-05-18T10:32:34.748Z,19.6
2019-05-18T10:33:36.621Z,19.7
2019-05-18T10:34:38.492Z,19.9
2019-05-18T10:35:40.355Z,20
2019-05-18T10:36:42.246Z,19.9
2019-05-18T10:37:43.847Z,20
2019-05-18T10:38:45.446Z,19.9
2019-05-18T10:39:46.481Z,20
2019-05-18T10:40:48.353Z,20
2019-05-18T10:41:50.223Z,19.8
2019-05-18T10:42:52.095Z,20
2019-05-18T10:43:53.965Z,19.9
2019-05-18T10:44:55.840Z,19.9
2019-05-18T10:45:57.708Z,19.9
2019-05-18T10:46:59.584Z,20
2019-05-18T10:48:01.502Z,20.1
2019-05-18T10:49:03.697Z,20.2
2019-05-18T10:50:05.566Z,20.1
2019-05-18T10:51:07.460Z,20.1
2019-05-18T10:52:09.330Z,20.1
2019-05-18T10:53:11.199Z,20.1
2019-05-18T10:54:28.286Z,20.1
2019-05-18T10:55:30.165Z,20.2
2019-05-18T10:56:31.844Z,20
2019-05-18T10:57:33.716Z,20.2
2019-05-18T10:58:35.596Z,19.9
2019-05-18T10:59:37.463Z,20.1
2019-05-18T11:00:39.345Z,20.1
2019-05-18T11:01:43.273Z,20
2019-05-18T11:02:45.717Z,20.1
2019-05-18T11:03:47.603Z,20.1
2019-05-18T11:04:49.480Z,20.2
2019-05-18T11:05:51.351Z,20.1
2019-05-18T11:06:52.693Z,20.2
2019-05-18T11:07:54.563Z,20.2
2019-05-18T11:08:56.454Z,20.4
2019-05-18T11:09:58.309Z,20.6
2019-05-18T11:11:00.178Z,20.6
2019-05-18T11:12:02.050Z,20.7
2019-05-18T11:13:03.926Z,20.9
2019-05-18T11:14:05.799Z,20.9
2019-05-18T11:15:07.686Z,20.7
2019-05-18T11:16:08.997Z,20.7
2019-05-18T11:17:10.597Z,20.7
2019-05-18T11:18:12.483Z,20.6
2019-05-18T11:19:14.355Z,20.7
2019-05-18T11:20:16.237Z,20.6
2019-05-18T11:21:18.109Z,20.7
2019-05-18T11:22:19.989Z,20.8
2019-05-18T11:23:21.045Z,20.8
2019-05-18T11:24:22.938Z,20.9
2019-05-18T11:25:24.523Z,20.8
2019-05-18T11:26:26.395Z,21
2019-05-18T11:27:28.265Z,21.1
2019-05-18T11:28:30.147Z,21.1
2019-05-18T11:29:32.021Z,21
2019-05-18T11:30:33.635Z,20.8
2019-05-18T11:31:35.504Z,20.8
2019-05-18T11:32:37.385Z,20.7
2019-05-18T11:33:39.264Z,20.5
2019-05-18T11:34:40.016Z,20.6
2019-05-18T11:35:41.881Z,20.5
2019-05-18T11:36:43.773Z,20.3
2019-05-18T11:37:45.625Z,20.5
2019-05-18T11:38:47.223Z,20.3
2019-05-18T11:39:48.815Z,20.3
2019-05-18T11:40:50.685Z,20.3
2019-05-18T11:41:52.554Z,20.5
2019-05-18T11:42:54.149Z,20.7
2019-05-18T11:43:56.022Z,20.7
2019-05-18T11:44:57.891Z,20.7
2019-05-18T11:45:59.772Z,20.7
2019-05-18T11:47:01.369Z,20.8
2019-05-18T11:48:03.258Z,20.8
2019-05-18T11:49:05.255Z,20.9
2019-05-18T11:50:06.563Z,20.9
2019-05-18T11:51:08.464Z,21
2019-05-18T11:52:10.336Z,21
2019-05-18T11:53:11.652Z,21
2019-05-18T11:54:13.236Z,21.1
2019-05-18T11:55:15.121Z,21.3
2019-05-18T11:56:16.724Z,21.3
2019-05-18T11:57:18.596Z,21.3
2019-05-18T11:58:20.473Z,21.2
2019-05-18T11:59:22.349Z,21.2
2019-05-18T12:00:23.940Z,21.2
2019-05-18T12:01:25.521Z,21.4
2019-05-18T12:02:27.392Z,21.5
2019-05-18T12:03:28.988Z,21.4
2019-05-18T12:04:30.859Z,21.6
2019-05-18T12:05:32.730Z,21.4
2019-05-18T12:06:34.608Z,21.3
2019-05-18T12:07:35.923Z,21.4
2019-05-18T12:08:37.798Z,21.4
2019-05-18T12:09:39.672Z,21.6
2019-05-18T12:10:41.544Z,21.5
2019-05-18T12:11:43.446Z,21.5
2019-05-18T12:12:45.030Z,21.4
2019-05-18T12:13:46.905Z,21.6
2019-05-18T12:14:48.789Z,21.4
2019-05-18T12:15:50.663Z,21.4
2019-05-18T12:16:52.555Z,21.3
2019-05-18T12:17:54.416Z,21.5
2019-05-18T12:18:57.628Z,21.3
2019-05-18T12:19:59.615Z,21.4
2019-05-18T12:21:01.488Z,21.3
2019-05-18T12:22:03.084Z,21.3
2019-05-18T12:23:08.076Z,21.3
2019-05-18T12:24:15.080Z,21.4
2019-05-18T12:25:17.402Z,21.1
2019-05-18T12:26:19.271Z,21.3
2019-05-18T12:27:21.145Z,21.3
2019-05-18T12:28:23.027Z,21.3
2019-05-18T12:29:24.953Z,21.3
2019-05-18T12:30:26.835Z,21.4
2019-05-18T12:31:28.702Z,21.3
2019-05-18T12:32:30.291Z,21.4
2019-05-18T12:33:32.163Z,21.6
2019-05-18T12:34:34.035Z,21.7
2019-05-18T12:35:35.909Z,21.6
2019-05-18T12:36:37.780Z,21.6
2019-05-18T12:37:39.661Z,21.7
2019-05-18T12:38:41.524Z,21.7
2019-05-18T12:39:43.121Z,21.7
2019-05-18T12:40:45.296Z,21.6
2019-05-18T12:41:47.189Z,21.4
2019-05-18T12:42:49.044Z,21.4
2019-05-18T12:43:50.921Z,21.5
2019-05-18T12:44:52.513Z,21.4
2019-05-18T12:45:54.388Z,21.6
2019-05-18T12:46:56.262Z,21.6
2019-05-18T12:47:58.179Z,21.7
2019-05-18T12:49:00.052Z,21.6
2019-05-18T12:50:01.926Z,21.7
2019-05-18T12:51:03.796Z,21.8
2019-05-18T12:52:05.669Z,21.7
2019-05-18T12:53:07.272Z,21.7
2019-05-18T12:54:09.148Z,21.7
2019-05-18T12:55:11.023Z,21.8
2019-05-18T12:56:12.616Z,21.9
2019-05-18T12:57:14.489Z,21.9
2019-05-18T12:58:16.368Z,21.9
2019-05-18T12:59:18.344Z,21.9
2019-05-18T13:00:20.223Z,22.1
2019-05-18T13:01:22.192Z,22
2019-05-18T13:02:23.536Z,22.2
2019-05-18T13:03:25.404Z,22.2
2019-05-18T13:04:27.343Z,22.2
2019-05-18T13:05:28.989Z,22.2
2019-05-18T13:06:30.593Z,22.3
2019-05-18T13:07:32.471Z,22.2
2019-05-18T13:08:34.357Z,22.4
2019-05-18T13:09:36.233Z,22.6
2019-05-18T13:10:38.106Z,22.6
2019-05-18T13:11:39.982Z,22.6
2019-05-18T13:12:41.878Z,22.5
2019-05-18T13:13:43.729Z,22.6
2019-05-18T13:14:45.604Z,22.5
2019-05-18T13:15:47.515Z,22.4
2019-05-18T13:16:49.389Z,22.3
2019-05-18T13:17:50.983Z,22.3
2019-05-18T13:18:52.860Z,22.3
2019-05-18T13:19:54.737Z,22.4
2019-05-18T13:20:56.324Z,22.2
2019-05-18T13:21:58.197Z,22.2
2019-05-18T13:23:00.102Z,22.2
2019-05-18T13:24:01.976Z,22.1
2019-05-18T13:25:03.851Z,22.1
2019-05-18T13:26:05.733Z,22.2
2019-05-18T13:27:07.623Z,22.2
2019-05-18T13:28:09.558Z,22.1
2019-05-18T13:29:11.435Z,22.1
2019-05-18T13:30:13.312Z,22.4
2019-05-18T13:31:14.914Z,22.3
2019-05-18T13:32:16.786Z,22.5
2019-05-18T13:33:18.759Z,22.5
2019-05-18T13:34:20.633Z,22.5
2019-05-18T13:35:22.507Z,22.5
2019-05-18T13:36:24.376Z,22.5
2019-05-18T13:37:25.972Z,22.5
2019-05-18T13:38:27.853Z,22.6
2019-05-18T13:39:28.904Z,22.6
2019-05-18T13:40:30.779Z,22.5
2019-05-18T13:41:32.658Z,22.6
2019-05-18T13:42:34.545Z,22.5
2019-05-18T13:43:36.428Z,22.4
2019-05-18T13:44:38.385Z,22.4
2019-05-18T13:45:40.272Z,22.4
2019-05-18T13:46:41.951Z,22.5
2019-05-18T13:47:43.831Z,22.5
2019-05-18T13:48:45.707Z,22.6
2019-05-18T13:49:47.593Z,22.7
2019-05-18T13:50:49.484Z,22.7
2019-05-18T13:51:51.408Z,22.8
2019-05-18T13:52:53.323Z,22.8
2019-05-18T13:53:55.244Z,22.8
2019-05-18T13:55:03.454Z,22.8
2019-05-18T13:56:06.473Z,22.8